createdAt,value
2022-08-24T00:01:59.833Z,5.90
2022-08-24T00:09:33.833Z,5.32
2022-08-24T00:17:09.833Z,4.28
2022-08-24T00:24:44.331Z,6.07
2022-08-24T00:32:19.464Z,4.37
2022-08-24T00:39:54.516Z,5.47
2022-08-24T00:47:33.895Z,5.07
2022-08-24T00:55:11.153Z,5.70
2022-08-24T01:02:49.866Z,4.90
2022-08-24T01:10:27.110Z,4.82
2022-08-24T01:18:21.195Z,5.18
2022-08-24T01:25:56.656Z,6.35
2022-08-24T01:33:33.075Z,8.73
2022-08-24T01:41:08.498Z,4.38
2022-08-24T01:48:46.092Z,4.53
2022-08-24T01:56:21.196Z,5.65
2022-08-24T02:11:31.736Z,4.35
2022-08-24T02:19:05.598Z,6.70
2022-08-24T02:26:40.698Z,4.85
2022-08-24T02:41:49.847Z,4.13
2022-08-24T02:49:24.055Z,4.75
2022-08-24T02:56:59.185Z,5.07
2022-08-24T03:12:08.704Z,5.38
2022-08-24T03:19:42.823Z,6.25
2022-08-24T03:27:18.027Z,8.75
2022-08-24T03:34:52.415Z,8.48
2022-08-24T03:42:27.830Z,6.27
2022-08-24T03:50:01.786Z,7.80
2022-08-24T03:57:37.089Z,8.93
2022-08-24T04:05:13.368Z,14.25
2022-08-24T04:12:49.738Z,10.05
2022-08-24T04:20:24.135Z,9.45
2022-08-24T04:27:59.255Z,10.10
2022-08-24T04:43:09.142Z,11.13
2022-08-24T04:50:45.285Z,11.98
2022-08-24T04:58:20.675Z,16.23
2022-08-24T05:05:54.665Z,22.20
2022-08-24T05:13:29.768Z,37.78
2022-08-24T05:28:42.473Z,20.73
2022-08-24T05:36:18.899Z,16.67
2022-08-24T05:43:54.554Z,13.45
2022-08-24T05:51:29.768Z,17.85
2022-08-24T05:59:05.390Z,15.18
2022-08-24T06:06:39.439Z,12.88
2022-08-24T06:14:17.082Z,14.02
2022-08-24T06:21:53.396Z,15.25
2022-08-24T06:29:28.656Z,17.35
2022-08-24T06:37:03.133Z,19.30
2022-08-24T06:44:38.577Z,22.57
2022-08-24T06:52:12.528Z,22.70
2022-08-24T06:59:47.727Z,28.60
2022-08-24T07:07:21.734Z,26.67
2022-08-24T07:14:56.908Z,36.50
2022-08-24T07:22:30.899Z,34.22
2022-08-24T07:30:25.732Z,40.50
2022-08-24T07:38:02.016Z,31.95
2022-08-24T07:53:15.008Z,30.92
2022-08-24T08:00:53.710Z,28.42
2022-08-24T08:08:28.634Z,29.20
2022-08-24T08:16:07.967Z,28.17
2022-08-24T08:23:59.992Z,27.13
2022-08-24T08:31:36.224Z,22.02
2022-08-24T08:39:13.092Z,20.35
2022-08-24T08:47:03.247Z,25.52
2022-08-24T08:54:50.243Z,22.90
2022-08-24T09:02:43.652Z,21.05
2022-08-24T09:10:37.154Z,20.35
2022-08-24T09:18:27.831Z,20.23
2022-08-24T09:26:09.473Z,15.85
2022-08-24T09:33:46.941Z,20.60
2022-08-24T09:41:52.485Z,16.05
2022-08-24T09:49:47.703Z,15.48
2022-08-24T10:05:56.693Z,14.70
2022-08-24T10:13:40.280Z,17.73
2022-08-24T10:21:25.937Z,13.57
2022-08-24T10:29:18.816Z,16.67
2022-08-24T10:37:25.128Z,17.60
2022-08-24T10:45:12.945Z,16.45
2022-08-24T10:53:16.073Z,19.23
2022-08-24T11:00:52.330Z,12.95
2022-08-24T11:08:28.338Z,13.50
2022-08-24T11:16:05.634Z,11.80
2022-08-24T11:23:44.033Z,13.55
2022-08-24T11:31:35.028Z,16.10
2022-08-24T11:39:18.706Z,16.30
2022-08-24T11:47:01.021Z,15.13
2022-08-24T11:54:44.272Z,16.13
2022-08-24T12:02:29.595Z,16.13
2022-08-24T12:10:19.271Z,13.23
2022-08-24T12:18:05.077Z,16.67
2022-08-24T12:25:57.336Z,13.30
2022-08-24T12:33:37.745Z,20.90
2022-08-24T12:41:19.511Z,13.73
2022-08-24T12:48:59.737Z,11.43
2022-08-24T12:56:50.687Z,11.57
2022-08-24T13:04:36.292Z,12.90
2022-08-24T13:12:47.503Z,12.93
2022-08-24T13:20:27.463Z,12.20
2022-08-24T13:28:08.801Z,12.57
2022-08-24T13:36:07.295Z,14.20
2022-08-24T13:43:51.103Z,14.43
2022-08-24T13:51:46.578Z,11.25
2022-08-24T13:59:35.914Z,12.80
2022-08-24T14:07:19.184Z,7.90
2022-08-24T14:15:08.402Z,11.00
2022-08-24T14:23:00.534Z,10.02
2022-08-24T14:30:44.232Z,10.27
2022-08-24T14:38:34.582Z,10.98
2022-08-24T14:46:14.178Z,11.25
2022-08-24T14:54:01.644Z,11.73
2022-08-24T15:01:42.361Z,9.63
2022-08-24T15:09:23.561Z,9.95
2022-08-24T15:17:04.022Z,11.60
2022-08-24T15:24:45.123Z,13.82
2022-08-24T15:32:19.367Z,11.40
2022-08-24T15:39:54.575Z,13.32
2022-08-24T15:47:32.435Z,11.65
2022-08-24T15:55:16.077Z,14.00
2022-08-24T16:02:49.843Z,9.95
2022-08-24T16:10:33.354Z,11.33
2022-08-24T16:18:07.491Z,11.55
2022-08-24T16:25:47.986Z,9.13
2022-08-24T16:33:45.956Z,11.43
2022-08-24T16:41:23.665Z,12.13
2022-08-24T16:48:57.454Z,12.50
2022-08-24T16:56:32.666Z,11.57
2022-08-24T17:04:06.507Z,8.00
2022-08-24T17:11:42.342Z,7.50
2022-08-24T17:19:21.379Z,7.00
2022-08-24T17:26:57.550Z,9.70
2022-08-24T17:34:32.705Z,8.98
2022-08-24T17:42:27.896Z,8.90
2022-08-24T17:50:06.251Z,9.07
2022-08-24T17:57:45.611Z,8.45
2022-08-24T18:05:22.090Z,6.68
2022-08-24T18:12:58.941Z,10.43
2022-08-24T18:20:36.635Z,10.65
2022-08-24T18:28:12.169Z,7.85
2022-08-24T18:35:47.607Z,7.63
2022-08-24T18:43:24.807Z,9.00
2022-08-24T18:50:58.723Z,8.32
2022-08-24T18:58:33.837Z,7.67
2022-08-24T19:06:08.218Z,8.23
2022-08-24T19:13:43.995Z,8.40
2022-08-24T19:21:18.325Z,9.40
2022-08-24T19:28:53.905Z,9.77
2022-08-24T19:36:28.758Z,13.77
2022-08-24T19:44:27.698Z,9.48
2022-08-24T19:52:03.088Z,8.65
2022-08-24T19:59:41.791Z,8.57
2022-08-24T20:07:18.534Z,10.95
2022-08-24T20:14:53.719Z,9.45
2022-08-24T20:22:27.775Z,8.20
2022-08-24T20:30:03.406Z,9.17
2022-08-24T20:37:37.380Z,8.93
2022-08-24T20:45:13.949Z,9.13
2022-08-24T20:52:48.739Z,7.60
2022-08-24T21:07:59.269Z,7.40
2022-08-24T21:15:35.091Z,7.20
2022-08-24T21:23:09.321Z,6.25
2022-08-24T21:30:44.613Z,10.47
2022-08-24T21:38:19.727Z,6.40
2022-08-24T21:45:56.611Z,7.07
2022-08-24T21:53:30.404Z,10.70
2022-08-24T22:01:06.426Z,6.53
2022-08-24T22:08:42.824Z,8.18
2022-08-24T22:16:18.327Z,7.55
2022-08-24T22:23:52.388Z,8.63
2022-08-24T22:31:33.678Z,7.88
2022-08-24T22:39:09.195Z,6.32
2022-08-24T22:46:44.661Z,8.57
2022-08-24T22:54:19.647Z,7.35
2022-08-24T23:09:41.619Z,8.88
2022-08-24T23:17:20.726Z,8.98
2022-08-24T23:24:54.955Z,8.68
2022-08-24T23:32:30.206Z,7.93
2022-08-24T23:40:05.842Z,7.22
2022-08-24T23:47:41.295Z,9.70
2022-08-24T23:55:21.323Z,8.00
